METAR AND TAF INFORMATION
METAR FOR SVSA
ADDS - METARS form results

(0308 UTC 21 January 2021)
Data provider http://aviationweather.gov/metar/data/
 
Forecast for: SVSA (SAN ANTONIO TACH, VE)
Text: TAF SVSA 202200Z 2100/2200 15002KT 9999 SCT016 TX33/2019Z TN25/2007Z
Forecast period: 0000 UTC 21 January 2021 to 0000 UTC 22 January 2021
Forecast type: FROM: standard forecast or significant change
Winds: from the SSE (150 degrees) at 2 MPH (2 knots; 1.0 m/s)
Visibility: 6 or more miles (10+ km)
Ceiling: at least 12,000 feet AGL
Clouds: scattered clouds at 1600 feet AGL
Weather: no significant weather forecast for this period
Text: BECMG 2100/2104 07005KT 9000 -DZ BKN016
Forecast period: 0000 UTC 21 January 2021 to 0000 UTC 22 January 2021
Forecast type: BECOMING: Conditions expected to become as follows by 0400 UTC 21 January 2021
Winds: from the ENE (70 degrees) at 6 MPH (5 knots; 2.6 m/s)
Visibility: 6 miles (9 km)
Ceiling: 1600 feet AGL
Clouds: broken clouds at 1600 feet AGL
Weather: -DZ  (light drizzle)

 AIRPORT MAP

 RUNWAY INFORMATION
Runway 17 Runway length 6135 ft Runway width 131 ft
Runway elevation 0 ft Runway displaced threshold 0 ft Runway heading 166
Runway 35 Runway length 6135 ft Runway width 131 ft
Runway elevation 0 ft Runway displaced threshold 0 ft Runway heading 346

 AIRPORT FREQUENCIES
Type GND Name GND Frequency 121.9 MHZ
Type TWR Name TWR Frequency 118.5 MHZ

 AIRPORT NEAR NAVIGATION AIDS